sensor_id;sensor_type;location;lat;lon;timestamp;P1;durP1;ratioP1;P2;durP2;ratioP2
12896;SDS011;6516;35.028;32.372;2024-03-02T00:01:55;7.35;;;2.75;;
12896;SDS011;6516;35.028;32.372;2024-03-02T00:04:23;5.50;;;2.50;;
12896;SDS011;6516;35.028;32.372;2024-03-02T00:06:51;6.90;;;2.70;;
12896;SDS011;6516;35.028;32.372;2024-03-02T00:09:19;8.27;;;2.50;;
12896;SDS011;6516;35.028;32.372;2024-03-02T00:11:48;10.63;;;2.60;;
12896;SDS011;6516;35.028;32.372;2024-03-02T00:14:16;7.60;;;2.70;;
12896;SDS011;6516;35.028;32.372;2024-03-02T00:16:46;4.80;;;2.70;;
12896;SDS011;6516;35.028;32.372;2024-03-02T00:19:14;8.95;;;2.88;;
12896;SDS011;6516;35.028;32.372;2024-03-02T00:21:41;10.40;;;3.00;;
12896;SDS011;6516;35.028;32.372;2024-03-02T00:24:16;7.03;;;2.75;;
12896;SDS011;6516;35.028;32.372;2024-03-02T00:26:48;6.07;;;2.72;;
12896;SDS011;6516;35.028;32.372;2024-03-02T00:29:16;7.13;;;2.92;;
12896;SDS011;6516;35.028;32.372;2024-03-02T00:31:47;6.63;;;2.83;;
12896;SDS011;6516;35.028;32.372;2024-03-02T00:34:15;6.60;;;2.30;;
12896;SDS011;6516;35.028;32.372;2024-03-02T00:36:45;6.55;;;2.50;;
12896;SDS011;6516;35.028;32.372;2024-03-02T00:39:13;7.00;;;2.22;;
12896;SDS011;6516;35.028;32.372;2024-03-02T00:41:43;8.43;;;2.50;;
12896;SDS011;6516;35.028;32.372;2024-03-02T00:44:11;8.32;;;2.40;;
12896;SDS011;6516;35.028;32.372;2024-03-02T00:46:40;10.27;;;2.67;;
12896;SDS011;6516;35.028;32.372;2024-03-02T00:49:16;6.63;;;2.78;;
12896;SDS011;6516;35.028;32.372;2024-03-02T00:51:47;7.57;;;3.08;;
12896;SDS011;6516;35.028;32.372;2024-03-02T00:54:19;6.38;;;2.65;;
12896;SDS011;6516;35.028;32.372;2024-03-02T00:56:49;8.13;;;2.50;;
12896;SDS011;6516;35.028;32.372;2024-03-02T00:59:18;7.53;;;2.20;;
12896;SDS011;6516;35.028;32.372;2024-03-02T01:01:45;5.35;;;2.30;;
12896;SDS011;6516;35.028;32.372;2024-03-02T01:04:16;7.20;;;2.30;;
12896;SDS011;6516;35.028;32.372;2024-03-02T01:06:44;5.75;;;2.20;;
12896;SDS011;6516;35.028;32.372;2024-03-02T01:09:12;4.70;;;2.17;;
12896;SDS011;6516;35.028;32.372;2024-03-02T01:11:40;6.93;;;2.00;;
12896;SDS011;6516;35.028;32.372;2024-03-02T01:14:08;5.68;;;2.33;;
12896;SDS011;6516;35.028;32.372;2024-03-02T01:16:36;5.50;;;2.17;;
12896;SDS011;6516;35.028;32.372;2024-03-02T01:19:04;4.90;;;2.03;;
12896;SDS011;6516;35.028;32.372;2024-03-02T01:21:33;8.02;;;2.50;;
12896;SDS011;6516;35.028;32.372;2024-03-02T01:24:02;5.47;;;2.20;;
12896;SDS011;6516;35.028;32.372;2024-03-02T01:26:31;4.25;;;1.77;;
12896;SDS011;6516;35.028;32.372;2024-03-02T01:28:59;5.65;;;1.95;;
12896;SDS011;6516;35.028;32.372;2024-03-02T01:31:27;4.63;;;1.92;;
12896;SDS011;6516;35.028;32.372;2024-03-02T01:33:55;4.93;;;1.88;;
12896;SDS011;6516;35.028;32.372;2024-03-02T01:36:23;5.30;;;1.90;;
12896;SDS011;6516;35.028;32.372;2024-03-02T01:38:52;6.88;;;1.80;;
12896;SDS011;6516;35.028;32.372;2024-03-02T01:41:20;3.85;;;1.90;;
12896;SDS011;6516;35.028;32.372;2024-03-02T01:43:47;6.60;;;2.00;;
12896;SDS011;6516;35.028;32.372;2024-03-02T01:46:15;5.57;;;2.00;;
12896;SDS011;6516;35.028;32.372;2024-03-02T01:48:43;4.10;;;1.83;;
12896;SDS011;6516;35.028;32.372;2024-03-02T01:51:11;4.15;;;1.80;;
12896;SDS011;6516;35.028;32.372;2024-03-02T01:53:39;5.05;;;1.60;;
12896;SDS011;6516;35.028;32.372;2024-03-02T01:56:08;5.28;;;2.05;;
12896;SDS011;6516;35.028;32.372;2024-03-02T01:58:36;5.82;;;1.92;;
12896;SDS011;6516;35.028;32.372;2024-03-02T02:01:04;7.10;;;2.30;;
12896;SDS011;6516;35.028;32.372;2024-03-02T02:03:32;4.88;;;1.90;;
12896;SDS011;6516;35.028;32.372;2024-03-02T02:06:00;4.80;;;1.75;;
12896;SDS011;6516;35.028;32.372;2024-03-02T02:08:28;5.03;;;1.88;;
12896;SDS011;6516;35.028;32.372;2024-03-02T02:10:57;4.68;;;1.50;;
12896;SDS011;6516;35.028;32.372;2024-03-02T02:13:26;5.20;;;1.80;;
12896;SDS011;6516;35.028;32.372;2024-03-02T02:15:54;5.00;;;1.70;;
12896;SDS011;6516;35.028;32.372;2024-03-02T02:18:22;5.43;;;1.88;;
12896;SDS011;6516;35.028;32.372;2024-03-02T02:20:50;5.22;;;1.90;;
12896;SDS011;6516;35.028;32.372;2024-03-02T02:23:19;5.90;;;1.90;;
12896;SDS011;6516;35.028;32.372;2024-03-02T02:25:47;5.27;;;1.80;;
12896;SDS011;6516;35.028;32.372;2024-03-02T02:28:15;6.45;;;1.70;;
12896;SDS011;6516;35.028;32.372;2024-03-02T02:30:43;8.95;;;2.20;;
12896;SDS011;6516;35.028;32.372;2024-03-02T02:33:11;7.47;;;2.05;;
12896;SDS011;6516;35.028;32.372;2024-03-02T02:35:39;4.35;;;1.90;;
12896;SDS011;6516;35.028;32.372;2024-03-02T02:38:07;5.53;;;1.90;;
12896;SDS011;6516;35.028;32.372;2024-03-02T02:40:36;6.68;;;1.90;;
12896;SDS011;6516;35.028;32.372;2024-03-02T02:43:04;4.38;;;1.80;;
12896;SDS011;6516;35.028;32.372;2024-03-02T02:45:32;7.07;;;2.35;;
12896;SDS011;6516;35.028;32.372;2024-03-02T02:48:00;4.60;;;1.70;;
12896;SDS011;6516;35.028;32.372;2024-03-02T02:50:28;4.40;;;1.70;;
12896;SDS011;6516;35.028;32.372;2024-03-02T02:53:00;6.38;;;1.98;;
12896;SDS011;6516;35.028;32.372;2024-03-02T02:55:28;6.05;;;2.10;;
12896;SDS011;6516;35.028;32.372;2024-03-02T02:57:57;6.00;;;1.95;;
12896;SDS011;6516;35.028;32.372;2024-03-02T03:00:25;6.82;;;2.05;;
12896;SDS011;6516;35.028;32.372;2024-03-02T03:02:53;8.63;;;2.20;;
12896;SDS011;6516;35.028;32.372;2024-03-02T03:05:21;4.30;;;2.10;;
12896;SDS011;6516;35.028;32.372;2024-03-02T03:07:49;4.32;;;1.70;;
12896;SDS011;6516;35.028;32.372;2024-03-02T03:10:17;4.53;;;1.95;;
12896;SDS011;6516;35.028;32.372;2024-03-02T03:12:47;6.20;;;2.05;;
12896;SDS011;6516;35.028;32.372;2024-03-02T03:15:17;5.97;;;2.00;;
12896;SDS011;6516;35.028;32.372;2024-03-02T03:17:45;6.47;;;2.10;;
12896;SDS011;6516;35.028;32.372;2024-03-02T03:20:13;6.50;;;2.65;;
12896;SDS011;6516;35.028;32.372;2024-03-02T03:22:41;4.32;;;2.00;;
12896;SDS011;6516;35.028;32.372;2024-03-02T03:25:09;5.05;;;2.10;;
12896;SDS011;6516;35.028;32.372;2024-03-02T03:27:37;6.13;;;2.10;;
12896;SDS011;6516;35.028;32.372;2024-03-02T03:30:07;5.32;;;2.10;;
12896;SDS011;6516;35.028;32.372;2024-03-02T03:32:37;7.65;;;2.67;;
12896;SDS011;6516;35.028;32.372;2024-03-02T03:35:05;5.05;;;1.92;;
12896;SDS011;6516;35.028;32.372;2024-03-02T03:37:34;5.57;;;2.30;;
12896;SDS011;6516;35.028;32.372;2024-03-02T03:40:02;5.17;;;2.63;;
12896;SDS011;6516;35.028;32.372;2024-03-02T03:42:35;5.07;;;2.15;;
12896;SDS011;6516;35.028;32.372;2024-03-02T03:45:03;5.10;;;2.22;;
12896;SDS011;6516;35.028;32.372;2024-03-02T03:47:31;4.60;;;1.90;;
12896;SDS011;6516;35.028;32.372;2024-03-02T03:50:01;5.95;;;2.45;;
12896;SDS011;6516;35.028;32.372;2024-03-02T03:52:32;6.33;;;2.10;;
12896;SDS011;6516;35.028;32.372;2024-03-02T03:55:00;8.15;;;2.10;;
12896;SDS011;6516;35.028;32.372;2024-03-02T03:57:28;6.95;;;2.22;;
12896;SDS011;6516;35.028;32.372;2024-03-02T03:59:56;5.85;;;2.50;;
12896;SDS011;6516;35.028;32.372;2024-03-02T04:02:23;6.50;;;2.30;;
12896;SDS011;6516;35.028;32.372;2024-03-02T04:04:51;6.93;;;2.30;;
12896;SDS011;6516;35.028;32.372;2024-03-02T04:07:20;6.95;;;2.08;;
12896;SDS011;6516;35.028;32.372;2024-03-02T04:09:48;6.05;;;2.50;;
12896;SDS011;6516;35.028;32.372;2024-03-02T04:12:16;5.97;;;2.35;;
12896;SDS011;6516;35.028;32.372;2024-03-02T04:14:44;5.47;;;2.20;;
12896;SDS011;6516;35.028;32.372;2024-03-02T04:17:12;4.50;;;2.10;;
12896;SDS011;6516;35.028;32.372;2024-03-02T04:19:40;5.00;;;1.98;;
12896;SDS011;6516;35.028;32.372;2024-03-02T04:22:07;4.50;;;2.15;;
12896;SDS011;6516;35.028;32.372;2024-03-02T04:24:37;6.78;;;2.60;;
12896;SDS011;6516;35.028;32.372;2024-03-02T04:27:05;5.07;;;2.15;;
12896;SDS011;6516;35.028;32.372;2024-03-02T04:29:33;5.90;;;2.40;;
12896;SDS011;6516;35.028;32.372;2024-03-02T04:32:01;6.28;;;2.25;;
12896;SDS011;6516;35.028;32.372;2024-03-02T04:34:28;5.28;;;2.38;;
12896;SDS011;6516;35.028;32.372;2024-03-02T04:36:56;5.20;;;2.10;;
12896;SDS011;6516;35.028;32.372;2024-03-02T04:39:24;8.13;;;2.00;;
12896;SDS011;6516;35.028;32.372;2024-03-02T04:41:54;8.57;;;2.33;;
12896;SDS011;6516;35.028;32.372;2024-03-02T04:44:21;5.32;;;2.33;;
12896;SDS011;6516;35.028;32.372;2024-03-02T04:46:49;6.82;;;2.72;;
12896;SDS011;6516;35.028;32.372;2024-03-02T04:49:17;5.38;;;2.40;;
12896;SDS011;6516;35.028;32.372;2024-03-02T04:51:45;5.53;;;2.30;;
12896;SDS011;6516;35.028;32.372;2024-03-02T04:54:13;6.17;;;2.87;;
12896;SDS011;6516;35.028;32.372;2024-03-02T04:56:40;6.18;;;2.95;;
12896;SDS011;6516;35.028;32.372;2024-03-02T04:59:16;6.30;;;2.70;;
12896;SDS011;6516;35.028;32.372;2024-03-02T05:01:44;5.30;;;2.45;;
12896;SDS011;6516;35.028;32.372;2024-03-02T05:04:12;6.63;;;2.80;;
12896;SDS011;6516;35.028;32.372;2024-03-02T05:06:40;5.90;;;2.40;;
12896;SDS011;6516;35.028;32.372;2024-03-02T05:09:08;6.95;;;2.30;;
12896;SDS011;6516;35.028;32.372;2024-03-02T05:11:36;6.30;;;2.33;;
12896;SDS011;6516;35.028;32.372;2024-03-02T05:14:22;5.10;;;2.28;;
12896;SDS011;6516;35.028;32.372;2024-03-02T05:16:50;7.70;;;2.50;;
12896;SDS011;6516;35.028;32.372;2024-03-02T05:19:18;6.00;;;2.60;;
12896;SDS011;6516;35.028;32.372;2024-03-02T05:21:46;5.53;;;2.45;;
12896;SDS011;6516;35.028;32.372;2024-03-02T05:24:14;5.25;;;2.13;;
12896;SDS011;6516;35.028;32.372;2024-03-02T05:26:42;6.50;;;2.33;;
12896;SDS011;6516;35.028;32.372;2024-03-02T05:29:10;7.03;;;2.40;;
12896;SDS011;6516;35.028;32.372;2024-03-02T05:31:39;5.40;;;2.30;;
12896;SDS011;6516;35.028;32.372;2024-03-02T05:34:07;5.88;;;2.00;;
12896;SDS011;6516;35.028;32.372;2024-03-02T05:36:35;7.10;;;2.70;;
12896;SDS011;6516;35.028;32.372;2024-03-02T05:39:04;5.80;;;2.30;;
12896;SDS011;6516;35.028;32.372;2024-03-02T05:41:34;6.00;;;2.20;;
12896;SDS011;6516;35.028;32.372;2024-03-02T05:44:03;4.83;;;1.97;;
12896;SDS011;6516;35.028;32.372;2024-03-02T05:46:31;5.07;;;2.10;;
12896;SDS011;6516;35.028;32.372;2024-03-02T05:49:01;5.75;;;2.10;;
12896;SDS011;6516;35.028;32.372;2024-03-02T05:51:29;5.95;;;2.10;;
12896;SDS011;6516;35.028;32.372;2024-03-02T05:53:56;5.05;;;1.95;;
12896;SDS011;6516;35.028;32.372;2024-03-02T05:56:24;4.10;;;1.90;;
12896;SDS011;6516;35.028;32.372;2024-03-02T05:58:52;5.28;;;2.00;;
12896;SDS011;6516;35.028;32.372;2024-03-02T06:01:32;5.68;;;2.15;;
12896;SDS011;6516;35.028;32.372;2024-03-02T06:04:01;4.43;;;2.10;;
12896;SDS011;6516;35.028;32.372;2024-03-02T06:06:29;5.22;;;2.55;;
12896;SDS011;6516;35.028;32.372;2024-03-02T06:08:59;5.77;;;2.57;;
12896;SDS011;6516;35.028;32.372;2024-03-02T06:11:28;5.32;;;2.30;;
12896;SDS011;6516;35.028;32.372;2024-03-02T06:13:56;4.70;;;2.40;;
12896;SDS011;6516;35.028;32.372;2024-03-02T06:16:23;5.32;;;2.53;;
12896;SDS011;6516;35.028;32.372;2024-03-02T06:18:51;4.45;;;2.10;;
12896;SDS011;6516;35.028;32.372;2024-03-02T06:21:21;4.67;;;2.00;;
12896;SDS011;6516;35.028;32.372;2024-03-02T06:23:51;5.25;;;2.13;;
12896;SDS011;6516;35.028;32.372;2024-03-02T06:26:19;8.48;;;2.50;;
12896;SDS011;6516;35.028;32.372;2024-03-02T06:28:47;5.20;;;2.20;;
12896;SDS011;6516;35.028;32.372;2024-03-02T06:31:15;5.40;;;2.33;;
12896;SDS011;6516;35.028;32.372;2024-03-02T06:33:42;7.33;;;2.80;;
12896;SDS011;6516;35.028;32.372;2024-03-02T06:36:10;6.43;;;2.55;;
12896;SDS011;6516;35.028;32.372;2024-03-02T06:38:39;7.45;;;2.35;;
12896;SDS011;6516;35.028;32.372;2024-03-02T06:41:07;6.20;;;2.30;;
12896;SDS011;6516;35.028;32.372;2024-03-02T06:43:36;4.88;;;2.40;;
12896;SDS011;6516;35.028;32.372;2024-03-02T06:46:04;8.63;;;2.80;;
12896;SDS011;6516;35.028;32.372;2024-03-02T06:48:34;6.38;;;2.30;;
12896;SDS011;6516;35.028;32.372;2024-03-02T06:51:02;5.05;;;2.20;;
12896;SDS011;6516;35.028;32.372;2024-03-02T06:53:31;8.32;;;2.63;;
12896;SDS011;6516;35.028;32.372;2024-03-02T06:56:00;6.18;;;2.05;;
12896;SDS011;6516;35.028;32.372;2024-03-02T06:58:29;7.10;;;2.30;;
12896;SDS011;6516;35.028;32.372;2024-03-02T07:00:57;7.85;;;2.40;;
12896;SDS011;6516;35.028;32.372;2024-03-02T07:03:26;6.60;;;2.20;;
12896;SDS011;6516;35.028;32.372;2024-03-02T07:05:54;5.05;;;2.05;;
12896;SDS011;6516;35.028;32.372;2024-03-02T07:08:22;7.85;;;2.00;;
12896;SDS011;6516;35.028;32.372;2024-03-02T07:10:50;5.93;;;2.30;;
12896;SDS011;6516;35.028;32.372;2024-03-02T07:13:19;7.10;;;2.25;;
12896;SDS011;6516;35.028;32.372;2024-03-02T07:15:47;7.93;;;2.28;;
12896;SDS011;6516;35.028;32.372;2024-03-02T07:18:41;5.80;;;2.42;;
12896;SDS011;6516;35.028;32.372;2024-03-02T07:21:16;6.25;;;2.40;;
12896;SDS011;6516;35.028;32.372;2024-03-02T07:23:44;5.43;;;1.97;;
12896;SDS011;6516;35.028;32.372;2024-03-02T07:26:12;5.25;;;2.10;;
12896;SDS011;6516;35.028;32.372;2024-03-02T07:28:41;7.95;;;2.50;;
12896;SDS011;6516;35.028;32.372;2024-03-02T07:31:09;5.35;;;2.08;;
12896;SDS011;6516;35.028;32.372;2024-03-02T07:33:37;6.47;;;2.30;;
12896;SDS011;6516;35.028;32.372;2024-03-02T07:36:05;5.60;;;2.30;;
12896;SDS011;6516;35.028;32.372;2024-03-02T07:38:33;6.28;;;2.22;;
12896;SDS011;6516;35.028;32.372;2024-03-02T07:41:01;5.00;;;2.30;;
12896;SDS011;6516;35.028;32.372;2024-03-02T07:43:30;6.10;;;2.30;;
12896;SDS011;6516;35.028;32.372;2024-03-02T07:46:00;4.80;;;2.00;;
12896;SDS011;6516;35.028;32.372;2024-03-02T07:48:28;6.43;;;2.37;;
12896;SDS011;6516;35.028;32.372;2024-03-02T07:50:56;6.97;;;2.33;;
12896;SDS011;6516;35.028;32.372;2024-03-02T07:53:24;7.32;;;2.33;;
12896;SDS011;6516;35.028;32.372;2024-03-02T07:55:52;6.70;;;2.28;;
12896;SDS011;6516;35.028;32.372;2024-03-02T07:58:20;5.40;;;2.28;;
12896;SDS011;6516;35.028;32.372;2024-03-02T08:00:47;5.80;;;2.10;;
12896;SDS011;6516;35.028;32.372;2024-03-02T08:03:17;5.25;;;2.30;;
12896;SDS011;6516;35.028;32.372;2024-03-02T08:05:45;5.70;;;2.42;;
12896;SDS011;6516;35.028;32.372;2024-03-02T08:08:13;5.22;;;2.50;;
12896;SDS011;6516;35.028;32.372;2024-03-02T08:10:41;5.20;;;2.40;;
12896;SDS011;6516;35.028;32.372;2024-03-02T08:13:08;5.27;;;2.20;;
12896;SDS011;6516;35.028;32.372;2024-03-02T08:15:36;6.00;;;2.60;;
12896;SDS011;6516;35.028;32.372;2024-03-02T08:18:04;5.30;;;2.50;;
12896;SDS011;6516;35.028;32.372;2024-03-02T08:20:34;7.38;;;2.67;;
12896;SDS011;6516;35.028;32.372;2024-03-02T08:23:02;6.60;;;2.50;;
12896;SDS011;6516;35.028;32.372;2024-03-02T08:25:31;5.93;;;2.60;;
12896;SDS011;6516;35.028;32.372;2024-03-02T08:27:59;5.30;;;2.50;;
12896;SDS011;6516;35.028;32.372;2024-03-02T08:30:26;6.47;;;2.80;;
12896;SDS011;6516;35.028;32.372;2024-03-02T08:32:54;7.40;;;2.55;;
12896;SDS011;6516;35.028;32.372;2024-03-02T08:35:22;8.75;;;2.90;;
12896;SDS011;6516;35.028;32.372;2024-03-02T08:37:51;6.57;;;2.60;;
12896;SDS011;6516;35.028;32.372;2024-03-02T08:40:18;5.22;;;2.70;;
12896;SDS011;6516;35.028;32.372;2024-03-02T08:42:46;5.68;;;2.70;;
12896;SDS011;6516;35.028;32.372;2024-03-02T08:45:14;6.88;;;2.70;;
12896;SDS011;6516;35.028;32.372;2024-03-02T08:47:42;7.93;;;3.03;;
12896;SDS011;6516;35.028;32.372;2024-03-02T08:50:10;5.67;;;2.77;;
12896;SDS011;6516;35.028;32.372;2024-03-02T08:52:38;5.70;;;2.75;;
12896;SDS011;6516;35.028;32.372;2024-03-02T08:55:07;7.07;;;2.90;;
12896;SDS011;6516;35.028;32.372;2024-03-02T08:57:36;7.05;;;2.50;;
12896;SDS011;6516;35.028;32.372;2024-03-02T09:00:05;6.82;;;3.00;;
12896;SDS011;6516;35.028;32.372;2024-03-02T09:02:34;8.13;;;3.10;;
12896;SDS011;6516;35.028;32.372;2024-03-02T09:05:02;6.63;;;3.22;;
12896;SDS011;6516;35.028;32.372;2024-03-02T09:07:31;7.32;;;3.83;;
12896;SDS011;6516;35.028;32.372;2024-03-02T09:09:59;6.85;;;3.30;;
12896;SDS011;6516;35.028;32.372;2024-03-02T09:12:29;6.22;;;3.47;;
12896;SDS011;6516;35.028;32.372;2024-03-02T09:14:56;6.03;;;3.07;;
12896;SDS011;6516;35.028;32.372;2024-03-02T09:17:24;7.88;;;2.83;;
12896;SDS011;6516;35.028;32.372;2024-03-02T09:19:52;8.23;;;3.00;;
12896;SDS011;6516;35.028;32.372;2024-03-02T09:22:20;7.65;;;2.80;;
12896;SDS011;6516;35.028;32.372;2024-03-02T09:24:48;9.63;;;3.40;;
12896;SDS011;6516;35.028;32.372;2024-03-02T09:27:16;8.73;;;3.10;;
12896;SDS011;6516;35.028;32.372;2024-03-02T09:29:45;7.65;;;3.20;;
12896;SDS011;6516;35.028;32.372;2024-03-02T09:32:13;9.70;;;3.30;;
12896;SDS011;6516;35.028;32.372;2024-03-02T09:34:41;9.25;;;3.50;;
12896;SDS011;6516;35.028;32.372;2024-03-02T09:37:10;10.90;;;3.45;;
12896;SDS011;6516;35.028;32.372;2024-03-02T09:39:37;7.47;;;3.20;;
12896;SDS011;6516;35.028;32.372;2024-03-02T09:42:05;7.85;;;3.63;;
12896;SDS011;6516;35.028;32.372;2024-03-02T09:44:33;7.43;;;3.20;;
12896;SDS011;6516;35.028;32.372;2024-03-02T09:47:03;7.75;;;3.05;;
12896;SDS011;6516;35.028;32.372;2024-03-02T09:49:32;6.28;;;3.10;;
12896;SDS011;6516;35.028;32.372;2024-03-02T09:52:00;11.67;;;3.63;;
12896;SDS011;6516;35.028;32.372;2024-03-02T09:54:28;7.95;;;3.10;;
12896;SDS011;6516;35.028;32.372;2024-03-02T09:56:56;9.00;;;3.17;;
12896;SDS011;6516;35.028;32.372;2024-03-02T09:59:29;7.90;;;3.15;;
12896;SDS011;6516;35.028;32.372;2024-03-02T10:01:58;9.55;;;3.20;;
12896;SDS011;6516;35.028;32.372;2024-03-02T10:04:28;7.63;;;3.13;;
12896;SDS011;6516;35.028;32.372;2024-03-02T10:07:09;10.10;;;3.47;;
12896;SDS011;6516;35.028;32.372;2024-03-02T10:09:40;8.85;;;3.05;;
12896;SDS011;6516;35.028;32.372;2024-03-02T10:12:10;11.10;;;3.63;;
12896;SDS011;6516;35.028;32.372;2024-03-02T10:14:39;7.68;;;3.60;;
12896;SDS011;6516;35.028;32.372;2024-03-02T10:17:08;11.97;;;4.10;;
12896;SDS011;6516;35.028;32.372;2024-03-02T10:19:38;12.30;;;4.32;;
12896;SDS011;6516;35.028;32.372;2024-03-02T10:22:07;12.40;;;3.78;;
12896;SDS011;6516;35.028;32.372;2024-03-02T10:24:36;11.52;;;3.53;;
12896;SDS011;6516;35.028;32.372;2024-03-02T10:27:08;12.43;;;3.63;;
12896;SDS011;6516;35.028;32.372;2024-03-02T10:29:38;14.30;;;3.90;;
12896;SDS011;6516;35.028;32.372;2024-03-02T10:32:08;9.40;;;3.47;;
12896;SDS011;6516;35.028;32.372;2024-03-02T10:34:39;12.90;;;3.60;;
12896;SDS011;6516;35.028;32.372;2024-03-02T10:37:07;12.32;;;4.03;;
12896;SDS011;6516;35.028;32.372;2024-03-02T10:39:37;12.90;;;3.75;;
12896;SDS011;6516;35.028;32.372;2024-03-02T10:42:06;11.70;;;4.23;;
12896;SDS011;6516;35.028;32.372;2024-03-02T10:44:35;11.20;;;3.67;;
12896;SDS011;6516;35.028;32.372;2024-03-02T10:47:03;16.77;;;4.20;;
12896;SDS011;6516;35.028;32.372;2024-03-02T10:49:32;9.98;;;3.50;;
12896;SDS011;6516;35.028;32.372;2024-03-02T10:52:02;12.65;;;3.85;;
12896;SDS011;6516;35.028;32.372;2024-03-02T10:54:30;11.00;;;3.77;;
12896;SDS011;6516;35.028;32.372;2024-03-02T10:57:01;11.05;;;3.58;;
12896;SDS011;6516;35.028;32.372;2024-03-02T10:59:32;10.82;;;3.80;;
12896;SDS011;6516;35.028;32.372;2024-03-02T11:02:02;9.35;;;3.50;;
12896;SDS011;6516;35.028;32.372;2024-03-02T11:04:33;11.40;;;3.60;;
12896;SDS011;6516;35.028;32.372;2024-03-02T11:07:04;10.87;;;3.70;;
12896;SDS011;6516;35.028;32.372;2024-03-02T11:09:35;11.10;;;3.60;;
12896;SDS011;6516;35.028;32.372;2024-03-02T11:12:11;9.07;;;3.58;;
12896;SDS011;6516;35.028;32.372;2024-03-02T11:14:43;13.13;;;3.90;;
12896;SDS011;6516;35.028;32.372;2024-03-02T11:17:11;11.00;;;4.00;;
12896;SDS011;6516;35.028;32.372;2024-03-02T11:19:41;9.67;;;3.50;;
12896;SDS011;6516;35.028;32.372;2024-03-02T11:22:12;13.95;;;3.95;;
12896;SDS011;6516;35.028;32.372;2024-03-02T11:24:41;9.95;;;3.53;;
12896;SDS011;6516;35.028;32.372;2024-03-02T11:27:20;11.15;;;3.90;;
12896;SDS011;6516;35.028;32.372;2024-03-02T11:33:25;10.10;;;3.40;;
12896;SDS011;6516;35.028;32.372;2024-03-02T11:35:56;11.43;;;3.33;;
12896;SDS011;6516;35.028;32.372;2024-03-02T11:38:30;11.25;;;3.60;;
12896;SDS011;6516;35.028;32.372;2024-03-02T11:40:59;12.80;;;3.60;;
12896;SDS011;6516;35.028;32.372;2024-03-02T11:43:28;12.75;;;3.67;;
12896;SDS011;6516;35.028;32.372;2024-03-02T11:45:57;10.67;;;3.90;;
12896;SDS011;6516;35.028;32.372;2024-03-02T11:48:26;12.07;;;3.60;;
12896;SDS011;6516;35.028;32.372;2024-03-02T11:50:54;12.68;;;3.53;;
12896;SDS011;6516;35.028;32.372;2024-03-02T11:53:26;11.65;;;3.80;;
12896;SDS011;6516;35.028;32.372;2024-03-02T11:55:57;12.80;;;4.28;;
12896;SDS011;6516;35.028;32.372;2024-03-02T11:58:26;10.50;;;3.67;;
12896;SDS011;6516;35.028;32.372;2024-03-02T12:00:54;17.20;;;4.30;;
12896;SDS011;6516;35.028;32.372;2024-03-02T12:03:23;14.35;;;4.15;;
12896;SDS011;6516;35.028;32.372;2024-03-02T12:05:53;10.52;;;4.35;;
12896;SDS011;6516;35.028;32.372;2024-03-02T12:08:21;13.43;;;4.40;;
12896;SDS011;6516;35.028;32.372;2024-03-02T12:11:00;13.93;;;3.80;;
12896;SDS011;6516;35.028;32.372;2024-03-02T12:13:29;11.43;;;4.07;;
12896;SDS011;6516;35.028;32.372;2024-03-02T12:15:57;10.15;;;4.25;;
12896;SDS011;6516;35.028;32.372;2024-03-02T12:18:25;11.95;;;4.25;;
12896;SDS011;6516;35.028;32.372;2024-03-02T12:20:52;9.57;;;2.83;;
12896;SDS011;6516;35.028;32.372;2024-03-02T12:23:22;6.80;;;2.33;;
12896;SDS011;6516;35.028;32.372;2024-03-02T12:25:50;6.80;;;2.30;;
12896;SDS011;6516;35.028;32.372;2024-03-02T12:28:19;8.77;;;2.55;;
12896;SDS011;6516;35.028;32.372;2024-03-02T12:30:48;6.32;;;2.30;;
12896;SDS011;6516;35.028;32.372;2024-03-02T12:33:17;6.63;;;2.40;;
12896;SDS011;6516;35.028;32.372;2024-03-02T12:35:44;8.13;;;2.60;;
12896;SDS011;6516;35.028;32.372;2024-03-02T12:38:14;6.50;;;2.67;;
12896;SDS011;6516;35.028;32.372;2024-03-02T12:40:42;8.45;;;3.05;;
12896;SDS011;6516;35.028;32.372;2024-03-02T12:43:10;7.22;;;2.80;;
12896;SDS011;6516;35.028;32.372;2024-03-02T12:45:39;8.98;;;3.00;;
12896;SDS011;6516;35.028;32.372;2024-03-02T12:48:07;10.10;;;3.03;;
12896;SDS011;6516;35.028;32.372;2024-03-02T12:50:35;11.88;;;3.08;;
12896;SDS011;6516;35.028;32.372;2024-03-02T12:53:03;7.78;;;2.65;;
12896;SDS011;6516;35.028;32.372;2024-03-02T12:55:31;7.15;;;2.78;;
12896;SDS011;6516;35.028;32.372;2024-03-02T12:57:59;8.93;;;2.80;;
12896;SDS011;6516;35.028;32.372;2024-03-02T13:00:28;7.17;;;2.43;;
12896;SDS011;6516;35.028;32.372;2024-03-02T13:03:01;7.68;;;2.15;;
12896;SDS011;6516;35.028;32.372;2024-03-02T13:05:30;6.63;;;2.35;;
12896;SDS011;6516;35.028;32.372;2024-03-02T13:07:58;6.50;;;2.55;;
12896;SDS011;6516;35.028;32.372;2024-03-02T13:10:28;8.80;;;2.50;;
12896;SDS011;6516;35.028;32.372;2024-03-02T13:12:57;5.70;;;2.37;;
12896;SDS011;6516;35.028;32.372;2024-03-02T13:15:25;6.90;;;2.67;;
12896;SDS011;6516;35.028;32.372;2024-03-02T13:17:54;10.60;;;3.00;;
12896;SDS011;6516;35.028;32.372;2024-03-02T13:20:31;9.63;;;2.85;;
12896;SDS011;6516;35.028;32.372;2024-03-02T13:22:59;8.95;;;2.75;;
12896;SDS011;6516;35.028;32.372;2024-03-02T13:25:27;8.83;;;2.47;;
12896;SDS011;6516;35.028;32.372;2024-03-02T13:27:56;7.55;;;2.38;;
12896;SDS011;6516;35.028;32.372;2024-03-02T13:30:25;7.43;;;2.75;;
12896;SDS011;6516;35.028;32.372;2024-03-02T13:32:53;10.80;;;2.53;;
12896;SDS011;6516;35.028;32.372;2024-03-02T13:35:21;7.00;;;2.83;;
12896;SDS011;6516;35.028;32.372;2024-03-02T13:37:50;9.63;;;2.93;;
12896;SDS011;6516;35.028;32.372;2024-03-02T13:40:18;8.45;;;2.70;;
12896;SDS011;6516;35.028;32.372;2024-03-02T13:42:46;9.90;;;2.50;;
12896;SDS011;6516;35.028;32.372;2024-03-02T13:45:14;8.65;;;2.88;;
12896;SDS011;6516;35.028;32.372;2024-03-02T13:47:43;9.45;;;2.67;;
12896;SDS011;6516;35.028;32.372;2024-03-02T13:50:11;10.40;;;3.30;;
12896;SDS011;6516;35.028;32.372;2024-03-02T13:52:39;10.85;;;3.20;;
12896;SDS011;6516;35.028;32.372;2024-03-02T13:55:08;7.65;;;2.65;;
12896;SDS011;6516;35.028;32.372;2024-03-02T13:57:36;8.90;;;3.08;;
12896;SDS011;6516;35.028;32.372;2024-03-02T14:00:05;9.43;;;3.17;;
12896;SDS011;6516;35.028;32.372;2024-03-02T14:02:36;6.97;;;2.50;;
12896;SDS011;6516;35.028;32.372;2024-03-02T14:05:04;12.00;;;3.67;;
12896;SDS011;6516;35.028;32.372;2024-03-02T14:07:36;12.13;;;3.45;;
12896;SDS011;6516;35.028;32.372;2024-03-02T14:10:05;11.65;;;3.38;;
12896;SDS011;6516;35.028;32.372;2024-03-02T14:12:35;11.50;;;3.42;;
12896;SDS011;6516;35.028;32.372;2024-03-02T14:15:04;10.40;;;3.20;;
12896;SDS011;6516;35.028;32.372;2024-03-02T14:17:33;16.00;;;3.78;;
12896;SDS011;6516;35.028;32.372;2024-03-02T14:20:01;13.45;;;3.67;;
12896;SDS011;6516;35.028;32.372;2024-03-02T14:22:30;11.27;;;3.65;;
12896;SDS011;6516;35.028;32.372;2024-03-02T14:24:59;12.48;;;4.10;;
12896;SDS011;6516;35.028;32.372;2024-03-02T14:27:28;12.90;;;3.93;;
12896;SDS011;6516;35.028;32.372;2024-03-02T14:29:56;11.85;;;3.90;;
12896;SDS011;6516;35.028;32.372;2024-03-02T14:32:24;10.90;;;3.53;;
12896;SDS011;6516;35.028;32.372;2024-03-02T14:34:54;12.60;;;3.63;;
12896;SDS011;6516;35.028;32.372;2024-03-02T14:37:22;8.48;;;3.70;;
12896;SDS011;6516;35.028;32.372;2024-03-02T14:39:50;11.80;;;4.00;;
12896;SDS011;6516;35.028;32.372;2024-03-02T14:42:18;12.82;;;4.18;;
12896;SDS011;6516;35.028;32.372;2024-03-02T14:44:47;11.52;;;4.25;;
12896;SDS011;6516;35.028;32.372;2024-03-02T14:47:15;13.30;;;4.30;;
12896;SDS011;6516;35.028;32.372;2024-03-02T14:49:43;15.63;;;4.10;;
12896;SDS011;6516;35.028;32.372;2024-03-02T14:52:11;11.53;;;4.00;;
12896;SDS011;6516;35.028;32.372;2024-03-02T14:54:39;18.67;;;4.18;;
12896;SDS011;6516;35.028;32.372;2024-03-02T14:57:07;13.95;;;4.15;;
12896;SDS011;6516;35.028;32.372;2024-03-02T14:59:36;15.52;;;4.28;;